LEGR/GRX METAR and TAF weather

Enter ICAO airport designator
Station Type Date Time Source
LEGR METAR 2021/09/24 02:30 UTC NOAA

LEGR 240230Z AUTO 05003KT CAVOK 20/15 Q1015


Station Type Date Time Source
LEGR Decoded METAR 2021/09/24 02:30 UTC NOAA

Granada / Aeropuerto, Spain (LEGR) 37-11N 003-47W 570M
Sep 23, 2021 - 10:30 PM EDT / 2021.09.24 0230 UTC
Wind: from the NE (050 degrees) at 3 MPH (3 KT):0
Visibility: greater than 7 mile(s):0
Temperature: 68 F (20 C)
Dew Point: 59 F (15 C)
Relative Humidity: 72%
Pressure (altimeter): 29.97 in. Hg (1015 hPa)
ob: LEGR 240230Z AUTO 05003KT CAVOK 20/15 Q1015
cycle: 2

Station Type Date Time Source
LEGR TAF 2021/09/23 18:27 UTC NOAA

TAF LEGR 231700Z 2318/2418 17012KT 9999 SCT050 TX29/2415Z TN16/2406Z
BECMG 2318/2321 VRB02KT
BECMG 2409/2412 18010KT

Example: see airport list